createdAt,value
2022-10-12T00:01:51.771Z,15.53
2022-10-12T00:04:18.759Z,15.90
2022-10-12T00:06:45.653Z,16.22
2022-10-12T00:09:12.529Z,16.16
2022-10-12T00:11:40.920Z,16.04
2022-10-12T00:14:08.362Z,15.85
2022-10-12T00:16:35.315Z,15.91
2022-10-12T00:19:02.537Z,15.56
2022-10-12T00:21:30.377Z,15.62
2022-10-12T00:24:01.576Z,15.58
2022-10-12T00:26:29.342Z,15.74
2022-10-12T00:29:03.737Z,15.90
2022-10-12T00:31:31.965Z,15.73
2022-10-12T00:34:03.085Z,15.60
2022-10-12T00:36:34.085Z,15.73
2022-10-12T00:39:02.123Z,15.85
2022-10-12T00:41:32.223Z,15.56
2022-10-12T00:44:00.029Z,15.39
2022-10-12T00:46:39.291Z,15.67
2022-10-12T00:49:22.824Z,15.95
2022-10-12T00:51:58.887Z,15.64
2022-10-12T00:54:35.033Z,15.52
2022-10-12T00:57:04.802Z,15.51
2022-10-12T00:59:40.342Z,15.66
2022-10-12T01:02:07.328Z,15.74
2022-10-12T01:04:34.440Z,15.69
2022-10-12T01:07:01.458Z,15.55
2022-10-12T01:09:29.143Z,15.78
2022-10-12T01:11:58.234Z,15.72
2022-10-12T01:14:27.073Z,15.93
2022-10-12T01:17:02.849Z,15.99
2022-10-12T01:20:06.592Z,15.69
2022-10-12T01:22:44.850Z,15.54
2022-10-12T01:25:29.900Z,15.25
2022-10-12T01:28:10.581Z,15.50
2022-10-12T01:30:43.818Z,15.72
2022-10-12T01:33:17.881Z,15.84
2022-10-12T01:35:55.970Z,15.64
2022-10-12T01:38:46.362Z,15.63
2022-10-12T01:41:20.507Z,15.68
2022-10-12T01:43:47.781Z,15.57
2022-10-12T01:46:20.813Z,15.62
2022-10-12T01:48:52.027Z,15.85
2022-10-12T01:51:35.917Z,16.17
2022-10-12T01:54:33.966Z,16.43
2022-10-12T01:57:36.274Z,16.67
2022-10-12T02:00:10.904Z,16.65
2022-10-12T02:02:53.082Z,16.67
2022-10-12T02:05:37.163Z,16.97
2022-10-12T02:08:19.794Z,17.09
2022-10-12T02:11:08.298Z,16.54
2022-10-12T02:13:40.769Z,16.70
2022-10-12T02:16:11.237Z,16.72
2022-10-12T02:18:42.988Z,16.80
2022-10-12T02:21:12.921Z,16.50
2022-10-12T02:23:40.230Z,16.04
2022-10-12T02:26:08.243Z,15.89
2022-10-12T02:28:37.564Z,15.85
2022-10-12T02:31:27.577Z,15.91
2022-10-12T02:34:02.693Z,16.29
2022-10-12T02:36:35.673Z,16.54
2022-10-12T02:39:11.171Z,16.52
2022-10-12T02:41:48.041Z,16.23
2022-10-12T02:44:20.057Z,16.34
2022-10-12T02:46:49.493Z,16.46
2022-10-12T02:49:18.482Z,16.31
2022-10-12T02:51:46.489Z,16.15
2022-10-12T02:54:13.534Z,16.16
2022-10-12T02:56:45.542Z,16.12
2022-10-12T02:59:14.106Z,16.10
2022-10-12T03:01:41.923Z,15.86
2022-10-12T03:04:09.367Z,15.64
2022-10-12T03:06:36.250Z,15.80
2022-10-12T03:09:05.218Z,15.99
2022-10-12T03:11:32.397Z,15.75
2022-10-12T03:13:59.868Z,15.57
2022-10-12T03:16:26.855Z,15.58
2022-10-12T03:18:53.771Z,15.80
2022-10-12T03:21:20.939Z,15.76
2022-10-12T03:23:47.773Z,15.92
2022-10-12T03:26:14.654Z,15.95
2022-10-12T03:28:41.613Z,15.82
2022-10-12T03:31:08.534Z,16.01
2022-10-12T03:33:35.582Z,16.03
2022-10-12T03:36:02.522Z,16.29
2022-10-12T03:38:29.552Z,16.30
2022-10-12T03:40:57.427Z,16.53
2022-10-12T03:43:24.472Z,16.40
2022-10-12T03:45:52.670Z,16.42
2022-10-12T03:48:20.984Z,16.53
2022-10-12T03:50:52.355Z,16.66
2022-10-12T03:53:20.085Z,16.84
2022-10-12T03:55:46.990Z,16.94
2022-10-12T03:58:14.435Z,16.63
2022-10-12T04:00:41.262Z,16.38
2022-10-12T04:03:08.281Z,15.90
2022-10-12T04:05:35.158Z,16.09
2022-10-12T04:08:02.412Z,15.59
2022-10-12T04:10:29.258Z,15.32
2022-10-12T04:12:57.504Z,15.83
2022-10-12T04:15:24.327Z,16.27
2022-10-12T04:17:51.317Z,16.49
2022-10-12T04:20:18.213Z,16.28
2022-10-12T04:22:45.097Z,15.72
2022-10-12T04:25:12.190Z,15.78
2022-10-12T04:27:39.807Z,15.67
2022-10-12T04:30:07.526Z,15.80
2022-10-12T04:32:34.428Z,16.05
2022-10-12T04:35:01.396Z,16.13
2022-10-12T04:37:28.470Z,16.39
2022-10-12T04:39:56.202Z,16.51
2022-10-12T04:42:23.071Z,16.65
2022-10-12T04:44:50.056Z,16.71
2022-10-12T04:47:16.967Z,16.35
2022-10-12T04:49:43.873Z,16.13
2022-10-12T04:52:10.748Z,16.31
2022-10-12T04:54:37.642Z,16.41
2022-10-12T04:57:04.486Z,16.71
2022-10-12T04:59:31.438Z,16.92
2022-10-12T05:01:58.460Z,17.15
2022-10-12T05:04:25.406Z,17.03
2022-10-12T05:06:52.391Z,17.37
2022-10-12T05:09:19.344Z,17.18
2022-10-12T05:11:46.801Z,17.37
2022-10-12T05:14:13.689Z,17.35
2022-10-12T05:16:40.669Z,17.55
2022-10-12T05:19:07.625Z,17.61
2022-10-12T05:21:34.743Z,17.72
2022-10-12T05:24:01.629Z,17.68
2022-10-12T05:26:28.644Z,17.57
2022-10-12T05:28:55.621Z,17.56
2022-10-12T05:31:22.526Z,17.93
2022-10-12T05:33:49.481Z,17.81
2022-10-12T05:36:16.378Z,17.76
2022-10-12T05:38:43.364Z,17.65
2022-10-12T05:41:10.576Z,17.67
2022-10-12T05:43:37.465Z,17.73
2022-10-12T05:46:04.911Z,17.60
2022-10-12T05:48:33.309Z,17.62
2022-10-12T05:51:00.361Z,17.63
2022-10-12T05:53:27.245Z,17.52
2022-10-12T05:55:57.846Z,17.64
2022-10-12T05:58:26.446Z,17.77
2022-10-12T06:00:53.607Z,17.68
2022-10-12T06:03:25.703Z,17.74
2022-10-12T06:05:53.415Z,17.71
2022-10-12T06:08:20.313Z,17.77
2022-10-12T06:10:50.810Z,18.39
2022-10-12T06:13:19.750Z,18.35
2022-10-12T06:15:47.558Z,18.62
2022-10-12T06:18:15.666Z,18.70
2022-10-12T06:20:47.530Z,18.78
2022-10-12T06:23:14.479Z,19.31
2022-10-12T06:25:41.874Z,19.66
2022-10-12T06:28:08.743Z,19.64
2022-10-12T06:30:35.589Z,20.11
2022-10-12T06:33:02.601Z,19.52
2022-10-12T06:35:29.596Z,19.80
2022-10-12T06:37:56.494Z,19.76
2022-10-12T06:40:23.426Z,19.81
2022-10-12T06:42:52.779Z,20.46
2022-10-12T06:45:23.130Z,21.39
2022-10-12T06:47:49.984Z,21.86
2022-10-12T06:50:16.994Z,21.65
2022-10-12T06:52:43.845Z,22.02
2022-10-12T06:55:11.725Z,21.74
2022-10-12T06:57:38.776Z,21.19
2022-10-12T07:00:07.979Z,20.27
2022-10-12T07:02:35.981Z,19.70
2022-10-12T07:05:03.183Z,20.34
2022-10-12T07:07:31.878Z,20.53
2022-10-12T07:09:59.006Z,20.19
2022-10-12T07:12:26.001Z,20.12
2022-10-12T07:14:54.946Z,19.80
2022-10-12T07:17:22.416Z,20.33
2022-10-12T07:19:49.308Z,20.76
2022-10-12T07:22:16.162Z,20.58
2022-10-12T07:24:43.104Z,20.28
2022-10-12T07:27:11.024Z,20.89
2022-10-12T07:29:39.111Z,21.06
2022-10-12T07:32:07.579Z,19.63
2022-10-12T07:34:34.824Z,20.31
2022-10-12T07:37:03.159Z,21.06
2022-10-12T07:39:30.233Z,21.08
2022-10-12T07:41:57.466Z,21.45
2022-10-12T07:44:24.663Z,20.83
2022-10-12T07:46:52.102Z,21.05
2022-10-12T07:49:19.500Z,20.60
2022-10-12T07:51:47.477Z,20.34
2022-10-12T07:54:19.826Z,19.46
2022-10-12T07:56:47.139Z,19.81
2022-10-12T07:59:14.056Z,19.73
2022-10-12T08:01:40.995Z,19.86
2022-10-12T08:04:07.913Z,20.02
2022-10-12T08:06:34.806Z,19.45
2022-10-12T08:09:02.449Z,19.99
2022-10-12T08:11:29.883Z,20.11
2022-10-12T08:13:56.917Z,20.24
2022-10-12T08:16:24.170Z,19.87
2022-10-12T08:18:51.642Z,20.13
2022-10-12T08:21:19.009Z,20.01
2022-10-12T08:23:47.050Z,20.33
2022-10-12T08:26:15.979Z,20.37
2022-10-12T08:28:43.147Z,20.18
2022-10-12T08:31:13.141Z,20.25
2022-10-12T08:33:40.322Z,20.79
2022-10-12T08:36:07.659Z,21.11
2022-10-12T08:38:38.955Z,21.33
2022-10-12T08:41:20.416Z,21.17
2022-10-12T08:44:17.854Z,21.93
2022-10-12T08:46:44.959Z,22.17
2022-10-12T08:49:14.220Z,22.39
2022-10-12T08:52:04.646Z,22.39
2022-10-12T08:54:41.524Z,21.69
2022-10-12T08:57:17.905Z,21.57
2022-10-12T08:59:46.240Z,22.74
2022-10-12T09:02:44.279Z,23.95
2022-10-12T09:05:18.150Z,24.89
2022-10-12T09:07:48.024Z,25.17
2022-10-12T09:10:30.176Z,25.08
2022-10-12T09:13:29.311Z,25.64
2022-10-12T09:16:27.541Z,27.02
2022-10-12T09:19:07.807Z,26.73
2022-10-12T09:21:35.590Z,27.36
2022-10-12T09:24:04.985Z,27.08
2022-10-12T09:26:40.253Z,26.53
2022-10-12T09:29:25.757Z,27.52
2022-10-12T09:32:26.534Z,28.12
2022-10-12T09:34:54.694Z,25.16
2022-10-12T09:37:24.909Z,25.81
2022-10-12T09:39:52.410Z,27.45
2022-10-12T09:42:19.326Z,25.46
2022-10-12T09:45:21.661Z,26.20
2022-10-12T09:48:10.080Z,28.14
2022-10-12T09:50:51.542Z,26.09
2022-10-12T09:53:32.798Z,26.70
2022-10-12T09:56:04.683Z,24.30
2022-10-12T09:58:40.266Z,24.47
2022-10-12T10:01:19.458Z,24.96
2022-10-12T10:03:48.782Z,25.61
2022-10-12T10:06:22.516Z,25.74
2022-10-12T10:08:49.599Z,26.57
2022-10-12T10:13:38.184Z,28.34
2022-10-12T10:16:12.222Z,28.12
2022-10-12T10:18:58.403Z,27.08
2022-10-12T10:21:33.268Z,27.32
2022-10-12T10:24:01.684Z,25.81
2022-10-12T10:26:32.307Z,26.53
2022-10-12T10:29:21.750Z,25.35
2022-10-12T10:31:48.882Z,24.68
2022-10-12T10:34:18.752Z,25.83
2022-10-12T10:36:51.861Z,26.78
2022-10-12T10:39:23.106Z,26.03
2022-10-12T10:41:51.703Z,27.34
2022-10-12T10:44:24.697Z,26.89
2022-10-12T10:46:53.518Z,27.05
2022-10-12T10:49:55.848Z,26.89
2022-10-12T10:52:35.475Z,26.48
2022-10-12T10:55:21.067Z,25.99
2022-10-12T10:58:06.195Z,24.65
2022-10-12T11:00:41.212Z,24.61
2022-10-12T11:06:09.398Z,25.93
2022-10-12T11:08:38.545Z,25.17
2022-10-12T11:11:20.966Z,24.30
2022-10-12T11:13:59.361Z,23.46
2022-10-12T11:16:53.481Z,23.88
2022-10-12T11:19:47.930Z,23.19
2022-10-12T11:22:29.425Z,23.18
2022-10-12T11:25:09.769Z,21.47
2022-10-12T11:27:41.831Z,22.18
2022-10-12T11:30:18.214Z,23.17
2022-10-12T11:32:50.351Z,23.50
2022-10-12T11:35:21.710Z,23.09
2022-10-12T11:38:00.751Z,21.91
2022-10-12T11:43:38.182Z,22.35
2022-10-12T11:46:08.439Z,21.47
2022-10-12T11:48:43.249Z,19.84
2022-10-12T11:51:11.061Z,19.33
2022-10-12T11:53:59.965Z,19.05
2022-10-12T11:56:26.857Z,19.02
2022-10-12T11:59:24.601Z,18.78
2022-10-12T12:02:02.536Z,19.12
2022-10-12T12:04:48.249Z,19.50
2022-10-12T12:07:37.124Z,19.51
2022-10-12T12:10:25.831Z,19.31
2022-10-12T12:13:21.790Z,19.19
2022-10-12T12:15:49.809Z,19.29
2022-10-12T12:18:20.277Z,19.88
2022-10-12T12:20:47.081Z,19.98
2022-10-12T12:23:27.877Z,19.91
2022-10-12T12:26:15.833Z,19.12
2022-10-12T12:28:46.587Z,19.11
2022-10-12T12:31:18.005Z,19.27
2022-10-12T12:33:48.405Z,19.15
2022-10-12T12:36:27.619Z,19.30
2022-10-12T12:38:54.862Z,19.20
2022-10-12T12:41:26.890Z,19.00
2022-10-12T12:43:59.603Z,18.98
2022-10-12T12:46:52.240Z,19.14
2022-10-12T12:49:39.438Z,19.06
2022-10-12T12:52:16.951Z,19.72
2022-10-12T12:54:56.201Z,19.55
2022-10-12T12:57:34.516Z,18.84
2022-10-12T13:00:10.856Z,19.35
2022-10-12T13:03:22.283Z,19.71
2022-10-12T13:06:16.448Z,19.21
2022-10-12T13:09:17.366Z,19.41
2022-10-12T13:11:57.246Z,19.39
2022-10-12T13:15:25.772Z,19.02
2022-10-12T13:18:34.679Z,19.14
2022-10-12T13:21:07.937Z,19.09
2022-10-12T13:23:35.410Z,19.03
2022-10-12T13:26:10.962Z,19.18
2022-10-12T13:28:43.583Z,18.80
2022-10-12T13:31:27.509Z,19.07
2022-10-12T13:34:06.571Z,18.89
2022-10-12T13:36:46.741Z,18.81
2022-10-12T13:39:16.526Z,19.10
2022-10-12T13:41:45.069Z,19.10
2022-10-12T13:44:22.358Z,18.70
2022-10-12T13:46:51.700Z,18.63
2022-10-12T13:49:34.509Z,18.47
2022-10-12T13:52:13.311Z,18.24
2022-10-12T13:54:46.404Z,18.14
2022-10-12T13:57:18.945Z,18.19
2022-10-12T13:59:52.514Z,18.13
2022-10-12T14:02:25.080Z,18.01
2022-10-12T14:04:57.986Z,18.13
2022-10-12T14:07:40.776Z,18.34
2022-10-12T14:10:16.465Z,18.29
2022-10-12T14:12:47.018Z,18.74
2022-10-12T14:15:15.167Z,18.47
2022-10-12T14:17:47.395Z,18.38
2022-10-12T14:20:19.102Z,18.89
2022-10-12T14:22:49.424Z,19.34
2022-10-12T14:25:18.823Z,19.55
2022-10-12T14:27:45.938Z,19.19
2022-10-12T14:30:35.630Z,19.38
2022-10-12T14:33:21.865Z,20.03
2022-10-12T14:35:51.042Z,19.73
2022-10-12T14:38:39.623Z,19.72
2022-10-12T14:41:28.497Z,20.01
2022-10-12T14:44:12.938Z,19.95
2022-10-12T14:46:47.719Z,20.22
2022-10-12T14:49:26.996Z,19.58
2022-10-12T14:51:55.451Z,20.09
2022-10-12T14:54:22.601Z,19.53
2022-10-12T14:56:49.482Z,19.62
2022-10-12T14:59:16.375Z,19.11
2022-10-12T15:01:47.421Z,18.85
2022-10-12T15:04:17.161Z,18.64
2022-10-12T15:06:48.306Z,18.75
2022-10-12T15:09:17.753Z,18.35
2022-10-12T15:11:44.893Z,18.49
2022-10-12T15:14:12.092Z,18.50
2022-10-12T15:16:39.157Z,18.46
2022-10-12T15:19:06.091Z,18.31
2022-10-12T15:21:33.091Z,18.33
2022-10-12T15:24:00.092Z,18.65
2022-10-12T15:26:27.121Z,18.44
2022-10-12T15:28:54.165Z,19.01
2022-10-12T15:31:21.161Z,19.15
2022-10-12T15:33:49.307Z,18.87
2022-10-12T15:36:16.210Z,18.83
2022-10-12T15:38:43.077Z,18.28
2022-10-12T15:41:24.340Z,18.32
2022-10-12T15:43:51.331Z,18.36
2022-10-12T15:46:18.315Z,18.22
2022-10-12T15:48:45.221Z,17.90
2022-10-12T15:51:24.435Z,17.83
2022-10-12T15:53:53.337Z,17.78
2022-10-12T15:56:21.430Z,17.64
2022-10-12T15:58:48.445Z,17.47
2022-10-12T16:01:17.782Z,17.65
2022-10-12T16:03:46.184Z,17.77
2022-10-12T16:06:13.155Z,18.11
2022-10-12T16:08:40.395Z,17.88
2022-10-12T16:11:11.515Z,18.23
2022-10-12T16:13:45.080Z,18.15
2022-10-12T16:16:19.057Z,18.10
2022-10-12T16:18:46.525Z,17.81
2022-10-12T16:21:13.829Z,17.57
2022-10-12T16:23:41.185Z,17.54
2022-10-12T16:26:12.265Z,17.57
2022-10-12T16:28:39.631Z,17.83
2022-10-12T16:31:12.494Z,17.83
2022-10-12T16:33:41.027Z,17.95
2022-10-12T16:36:13.636Z,18.09
2022-10-12T16:38:40.801Z,17.67
2022-10-12T16:41:10.125Z,17.58
2022-10-12T16:43:37.543Z,17.43
2022-10-12T16:46:05.077Z,17.14
2022-10-12T16:48:32.204Z,17.17
2022-10-12T16:50:59.744Z,17.22
2022-10-12T16:53:27.235Z,17.43
2022-10-12T16:55:54.305Z,17.43
2022-10-12T16:58:21.266Z,17.59
2022-10-12T17:00:48.546Z,17.80
2022-10-12T17:03:15.788Z,17.85
2022-10-12T17:05:42.839Z,18.15
2022-10-12T17:08:15.047Z,17.99
2022-10-12T17:10:44.401Z,17.76
2022-10-12T17:13:13.779Z,17.64
2022-10-12T17:15:43.696Z,17.49
2022-10-12T17:18:10.823Z,17.56
2022-10-12T17:20:37.844Z,17.65
2022-10-12T17:23:04.823Z,17.48
2022-10-12T17:25:31.848Z,17.86
2022-10-12T17:27:58.761Z,17.75
2022-10-12T17:30:25.748Z,17.34
2022-10-12T17:32:52.815Z,17.43
2022-10-12T17:35:20.135Z,17.34
2022-10-12T17:37:47.124Z,17.60
2022-10-12T17:40:14.227Z,17.71
2022-10-12T17:42:41.116Z,17.85
2022-10-12T17:45:08.617Z,18.08
2022-10-12T17:47:35.606Z,17.98
2022-10-12T17:50:02.946Z,18.05
2022-10-12T17:52:30.328Z,18.00
2022-10-12T17:54:57.540Z,17.96
2022-10-12T17:57:24.464Z,17.86
2022-10-12T17:59:51.374Z,17.81
2022-10-12T18:02:18.415Z,17.84
2022-10-12T18:04:45.374Z,18.01
2022-10-12T18:07:12.259Z,18.16
2022-10-12T18:09:39.570Z,18.05
2022-10-12T18:12:06.604Z,18.08
2022-10-12T18:14:33.886Z,17.87
2022-10-12T18:17:00.800Z,17.83
2022-10-12T18:19:27.740Z,17.77
2022-10-12T18:21:54.706Z,17.28
2022-10-12T18:24:23.351Z,17.05
2022-10-12T18:26:50.916Z,17.03
2022-10-12T18:29:19.897Z,17.20
2022-10-12T18:31:47.207Z,17.42
2022-10-12T18:34:14.259Z,17.62
2022-10-12T18:36:43.138Z,17.84
2022-10-12T18:39:10.350Z,17.93
2022-10-12T18:41:37.302Z,17.87
2022-10-12T18:44:04.416Z,17.08
2022-10-12T18:46:33.695Z,16.83
2022-10-12T18:49:05.075Z,16.69
2022-10-12T18:51:34.420Z,16.94
2022-10-12T18:54:02.853Z,16.92
2022-10-12T18:56:31.899Z,16.91
2022-10-12T18:59:00.053Z,16.85
2022-10-12T19:01:29.548Z,16.90
2022-10-12T19:03:58.589Z,16.99
2022-10-12T19:06:29.963Z,16.75
2022-10-12T19:08:58.862Z,16.73
2022-10-12T19:11:27.878Z,16.89
2022-10-12T19:13:57.857Z,17.25
2022-10-12T19:16:25.475Z,17.37
2022-10-12T19:19:00.882Z,17.30
2022-10-12T19:21:28.833Z,17.33
2022-10-12T19:23:55.756Z,17.34
2022-10-12T19:26:25.519Z,17.24
2022-10-12T19:28:55.247Z,16.99
2022-10-12T19:31:27.481Z,16.94
2022-10-12T19:33:57.003Z,16.75
2022-10-12T19:36:24.935Z,16.47
2022-10-12T19:38:54.671Z,16.70
2022-10-12T19:41:21.534Z,16.92
2022-10-12T19:43:49.963Z,16.87
2022-10-12T19:46:16.876Z,17.14
2022-10-12T19:48:48.126Z,16.69
2022-10-12T19:51:15.243Z,16.57
2022-10-12T19:53:42.355Z,16.51
2022-10-12T19:56:15.142Z,16.16
2022-10-12T19:58:44.164Z,16.14
2022-10-12T20:01:17.082Z,16.28
2022-10-12T20:03:47.742Z,16.29
2022-10-12T20:06:15.543Z,16.36
2022-10-12T20:08:44.263Z,16.34
2022-10-12T20:11:17.990Z,16.04
2022-10-12T20:13:48.177Z,16.17
2022-10-12T20:16:17.282Z,15.99
2022-10-12T20:18:44.727Z,15.98
2022-10-12T20:21:14.094Z,15.89
2022-10-12T20:23:42.797Z,15.88
2022-10-12T20:26:13.764Z,15.68
2022-10-12T20:28:41.599Z,15.74
2022-10-12T20:31:09.287Z,15.75
2022-10-12T20:33:37.516Z,15.79
2022-10-12T20:36:08.937Z,15.73
2022-10-12T20:38:37.768Z,15.75
2022-10-12T20:41:10.466Z,15.73
2022-10-12T20:43:40.592Z,15.66
2022-10-12T20:46:12.024Z,15.61
2022-10-12T20:48:40.301Z,15.65
2022-10-12T20:51:08.643Z,15.81
2022-10-12T20:53:35.949Z,15.72
2022-10-12T20:56:06.834Z,15.78
2022-10-12T20:58:33.976Z,15.79
2022-10-12T21:01:09.880Z,15.78
2022-10-12T21:03:37.503Z,15.68
2022-10-12T21:06:10.840Z,15.69
2022-10-12T21:08:38.378Z,15.55
2022-10-12T21:11:05.806Z,15.52
2022-10-12T21:13:35.077Z,15.57
2022-10-12T21:16:02.401Z,15.39
2022-10-12T21:18:32.834Z,15.44
2022-10-12T21:21:14.148Z,15.47
2022-10-12T21:23:42.501Z,15.49
2022-10-12T21:26:10.630Z,15.44
2022-10-12T21:28:37.805Z,15.54
2022-10-12T21:31:04.922Z,15.61
2022-10-12T21:33:31.815Z,15.61
2022-10-12T21:36:16.937Z,15.43
2022-10-12T21:38:44.399Z,15.54
2022-10-12T21:41:13.107Z,15.46
2022-10-12T21:43:41.119Z,15.58
2022-10-12T21:46:13.733Z,15.73
2022-10-12T21:48:41.402Z,15.56
2022-10-12T21:51:09.341Z,15.51
2022-10-12T21:53:37.806Z,15.51
2022-10-12T21:56:19.074Z,15.48
2022-10-12T21:58:48.665Z,15.60
2022-10-12T22:01:23.734Z,15.42
2022-10-12T22:03:59.370Z,15.39
2022-10-12T22:06:28.659Z,15.53
2022-10-12T22:09:01.927Z,15.56
2022-10-12T22:11:30.780Z,15.40
2022-10-12T22:14:04.238Z,15.54
2022-10-12T22:16:31.615Z,15.52
2022-10-12T22:19:00.061Z,15.55
2022-10-12T22:21:32.908Z,15.50
2022-10-12T22:24:00.628Z,15.53
2022-10-12T22:26:28.258Z,15.46
2022-10-12T22:28:55.587Z,15.61
2022-10-12T22:31:24.831Z,15.51
2022-10-12T22:33:52.624Z,15.44
2022-10-12T22:36:19.532Z,15.48
2022-10-12T22:38:46.911Z,15.50
2022-10-12T22:41:16.413Z,15.53
2022-10-12T22:43:50.053Z,15.48
2022-10-12T22:46:18.085Z,15.41
2022-10-12T22:48:45.001Z,15.40
2022-10-12T22:51:35.394Z,15.32
2022-10-12T22:54:02.816Z,15.47
2022-10-12T22:56:30.509Z,15.38
2022-10-12T22:58:59.712Z,15.46
2022-10-12T23:01:27.429Z,15.58
2022-10-12T23:03:55.290Z,15.44
2022-10-12T23:06:23.551Z,15.52
2022-10-12T23:08:50.790Z,15.56
2022-10-12T23:11:21.095Z,15.65
2022-10-12T23:13:48.273Z,16.02
2022-10-12T23:16:21.088Z,15.78
2022-10-12T23:18:48.483Z,15.52
2022-10-12T23:21:17.738Z,15.34
2022-10-12T23:23:45.772Z,15.35
2022-10-12T23:26:22.842Z,15.47
2022-10-12T23:28:50.328Z,15.45
2022-10-12T23:31:20.484Z,15.36
2022-10-12T23:33:47.547Z,15.34
2022-10-12T23:36:16.828Z,15.23
2022-10-12T23:38:45.254Z,15.10
2022-10-12T23:41:13.078Z,14.99
2022-10-12T23:43:40.080Z,15.10
2022-10-12T23:46:07.536Z,15.20
2022-10-12T23:48:35.139Z,15.11
2022-10-12T23:51:02.391Z,14.99
2022-10-12T23:53:29.515Z,15.16
2022-10-12T23:55:56.534Z,15.02
2022-10-12T23:58:23.776Z,15.01
